CheckWX is a tool to help pilots better visualize weather data.  It is not intended as a substitute for an official pre-flight weather briefing.

04:10:42 UTC

KOWX METAR
Putnam County Airport
Ottawa, Ohio, USA
Current

16 mins ago

KOWX 260355Z AUTO 18006KT 10SM CLR 20/18 A3001 RMK AO1
Observed
May-26 @ 03:55 UTC
Wind
  • 180° at 6 KTS
Visibility
10 SM
Flight Rules
VFR
Cloud Levels
  • Clear skies
Temperature
20°C / 68°F
Dewpoint
18°C / 64°F
Humidity
88%
Altimeter
30.01" Hg
Pressure
1016.22 hPa
Previous

36 mins ago

KOWX 260335Z AUTO 20005KT 10SM CLR 20/18 A3002 RMK AO1
Observed
May-26 @ 03:35 UTC
Wind
  • 200° at 5 KTS
Visibility
10 SM
Flight Rules
VFR
Cloud Levels
  • Clear skies
Temperature
20°C / 68°F
Dewpoint
18°C / 64°F
Humidity
88%
Altimeter
30.02" Hg
Pressure
1016.62 hPa
Previous

56 mins ago

KOWX 260315Z AUTO 20005KT 10SM CLR 20/18 A3002 RMK AO1
Observed
May-26 @ 03:15 UTC
Wind
  • 200° at 5 KTS
Visibility
10 SM
Flight Rules
VFR
Cloud Levels
  • Clear skies
Temperature
20°C / 68°F
Dewpoint
18°C / 64°F
Humidity
88%
Altimeter
30.02" Hg
Pressure
1016.62 hPa